createdAt,value
2023-04-16T00:07:44.165Z,7.10
2023-04-16T00:22:46.418Z,6.90
2023-04-16T00:37:48.424Z,5.15
2023-04-16T00:52:51.038Z,4.88
2023-04-16T01:07:53.095Z,5.05
2023-04-16T01:22:55.269Z,5.10
2023-04-16T01:37:57.349Z,6.00
2023-04-16T01:52:59.454Z,6.60
2023-04-16T02:08:01.611Z,6.43
2023-04-16T02:23:04.061Z,6.43
2023-04-16T02:38:06.496Z,5.68
2023-04-16T02:53:08.667Z,5.88
2023-04-16T03:08:11.030Z,6.85
2023-04-16T03:23:13.010Z,5.78
2023-04-16T03:38:15.025Z,4.82
2023-04-16T03:53:17.110Z,6.28
2023-04-16T04:08:19.171Z,5.88
2023-04-16T04:23:21.174Z,6.80
2023-04-16T04:38:25.494Z,7.57
2023-04-16T04:53:27.451Z,8.77
2023-04-16T05:08:29.456Z,9.10
2023-04-16T05:23:31.518Z,8.00
2023-04-16T05:38:33.528Z,8.32
2023-04-16T05:53:35.503Z,7.30
2023-04-16T06:08:37.588Z,7.38
2023-04-16T06:23:39.559Z,7.05
2023-04-16T06:38:41.625Z,7.85
2023-04-16T06:53:43.896Z,6.72
2023-04-16T07:08:46.409Z,6.90
2023-04-16T07:23:48.352Z,5.75
2023-04-16T07:38:50.351Z,6.18
2023-04-16T07:53:52.537Z,6.18
2023-04-16T08:08:54.596Z,7.25
2023-04-16T08:23:56.760Z,6.85
2023-04-16T08:38:58.982Z,6.65
2023-04-16T08:54:04.852Z,8.90
2023-04-16T09:09:08.024Z,7.28
2023-04-16T09:24:10.734Z,8.45
2023-04-16T09:39:20.966Z,8.73
2023-04-16T09:54:22.925Z,8.57
2023-04-16T10:09:24.989Z,8.20
2023-04-16T10:24:28.457Z,8.50
2023-04-16T10:39:33.293Z,7.97
2023-04-16T10:54:39.078Z,8.63
2023-04-16T11:09:49.982Z,8.45
2023-04-16T11:24:58.175Z,8.98
2023-04-16T11:40:00.437Z,8.63
2023-04-16T11:55:03.065Z,8.52
2023-04-16T12:10:07.906Z,8.23
2023-04-16T12:25:15.354Z,8.35
2023-04-16T12:40:17.445Z,8.88
2023-04-16T12:55:19.712Z,8.73
2023-04-16T13:10:23.705Z,9.80
2023-04-16T13:25:26.096Z,8.05
2023-04-16T13:40:28.669Z,7.78
2023-04-16T13:55:32.449Z,10.00
2023-04-16T14:10:35.671Z,9.95
2023-04-16T14:25:38.750Z,9.60
2023-04-16T14:40:40.923Z,9.48
2023-04-16T14:55:43.151Z,9.82
2023-04-16T15:10:46.071Z,10.25
2023-04-16T15:25:48.546Z,11.68
2023-04-16T15:40:51.359Z,9.75
2023-04-16T15:55:54.361Z,9.60
2023-04-16T16:10:57.067Z,9.18
2023-04-16T16:26:00.103Z,9.23
2023-04-16T16:41:03.155Z,8.65
2023-04-16T16:56:06.162Z,11.63
2023-04-16T17:11:09.333Z,11.25
2023-04-16T17:26:12.454Z,10.75
2023-04-16T17:41:17.488Z,10.88
2023-04-16T17:56:20.059Z,11.45
2023-04-16T18:11:22.643Z,10.82
2023-04-16T18:26:25.465Z,13.65
2023-04-16T18:41:28.449Z,11.77
2023-04-16T18:56:31.980Z,12.65
2023-04-16T19:11:34.961Z,11.07
2023-04-16T19:26:38.212Z,11.18
2023-04-16T19:41:40.563Z,10.13
2023-04-16T19:56:42.973Z,10.60
2023-04-16T20:11:45.656Z,11.38
2023-04-16T20:26:48.082Z,12.15
2023-04-16T20:41:57.517Z,11.93
2023-04-16T20:56:59.839Z,11.17
2023-04-16T21:12:02.104Z,12.50
2023-04-16T21:27:04.193Z,12.15
2023-04-16T21:42:06.277Z,12.57
2023-04-16T21:57:08.242Z,12.50
2023-04-16T22:12:12.982Z,12.38
2023-04-16T22:27:14.921Z,13.05
2023-04-16T22:42:16.932Z,13.73
2023-04-16T22:57:21.408Z,13.93
2023-04-16T23:12:23.358Z,13.13
2023-04-16T23:27:25.454Z,13.40
2023-04-16T23:42:27.504Z,12.93
2023-04-16T23:57:29.581Z,12.70
